sensor_id;sensor_type;location;lat;lon;timestamp;P1;durP1;ratioP1;P2;durP2;ratioP2
2474;SDS011;1248;48.694;10.160;2022-08-14T00:00:07;5.33;;;4.93;;
2474;SDS011;1248;48.694;10.160;2022-08-14T00:02:37;6.47;;;5.70;;
2474;SDS011;1248;48.694;10.160;2022-08-14T00:05:05;5.80;;;5.30;;
2474;SDS011;1248;48.694;10.160;2022-08-14T00:07:33;7.60;;;4.73;;
2474;SDS011;1248;48.694;10.160;2022-08-14T00:10:00;4.97;;;4.50;;
2474;SDS011;1248;48.694;10.160;2022-08-14T00:12:28;7.70;;;5.10;;
2474;SDS011;1248;48.694;10.160;2022-08-14T00:14:55;4.87;;;4.40;;
2474;SDS011;1248;48.694;10.160;2022-08-14T00:17:22;5.40;;;5.00;;
2474;SDS011;1248;48.694;10.160;2022-08-14T00:19:52;4.87;;;4.50;;
2474;SDS011;1248;48.694;10.160;2022-08-14T00:22:19;5.73;;;4.87;;
2474;SDS011;1248;48.694;10.160;2022-08-14T00:24:47;6.07;;;5.57;;
2474;SDS011;1248;48.694;10.160;2022-08-14T00:27:14;6.77;;;5.40;;
2474;SDS011;1248;48.694;10.160;2022-08-14T00:29:41;5.27;;;4.87;;
2474;SDS011;1248;48.694;10.160;2022-08-14T00:32:08;7.27;;;5.60;;
2474;SDS011;1248;48.694;10.160;2022-08-14T00:34:35;5.00;;;4.60;;
2474;SDS011;1248;48.694;10.160;2022-08-14T00:37:04;7.40;;;5.97;;
2474;SDS011;1248;48.694;10.160;2022-08-14T00:39:31;7.00;;;6.40;;
2474;SDS011;1248;48.694;10.160;2022-08-14T00:41:58;6.07;;;5.57;;
2474;SDS011;1248;48.694;10.160;2022-08-14T00:44:25;5.53;;;5.10;;
2474;SDS011;1248;48.694;10.160;2022-08-14T00:46:53;6.50;;;5.07;;
2474;SDS011;1248;48.694;10.160;2022-08-14T00:49:20;6.03;;;5.53;;
2474;SDS011;1248;48.694;10.160;2022-08-14T00:51:47;5.93;;;5.03;;
2474;SDS011;1248;48.694;10.160;2022-08-14T00:54:15;5.60;;;5.00;;
2474;SDS011;1248;48.694;10.160;2022-08-14T00:56:43;5.77;;;5.27;;
2474;SDS011;1248;48.694;10.160;2022-08-14T00:59:10;6.17;;;5.67;;
2474;SDS011;1248;48.694;10.160;2022-08-14T01:01:37;5.60;;;4.73;;
2474;SDS011;1248;48.694;10.160;2022-08-14T01:04:04;5.10;;;4.70;;
2474;SDS011;1248;48.694;10.160;2022-08-14T01:06:31;7.03;;;6.43;;
2474;SDS011;1248;48.694;10.160;2022-08-14T01:08:58;6.17;;;5.57;;
2474;SDS011;1248;48.694;10.160;2022-08-14T01:11:28;6.33;;;5.83;;
2474;SDS011;1248;48.694;10.160;2022-08-14T01:13:55;6.27;;;5.30;;
2474;SDS011;1248;48.694;10.160;2022-08-14T01:16:26;6.23;;;5.73;;
2474;SDS011;1248;48.694;10.160;2022-08-14T01:18:55;8.00;;;6.20;;
2474;SDS011;1248;48.694;10.160;2022-08-14T01:21:41;5.43;;;4.93;;
2474;SDS011;1248;48.694;10.160;2022-08-14T01:24:11;5.77;;;5.27;;
2474;SDS011;1248;48.694;10.160;2022-08-14T01:26:40;6.10;;;5.50;;
2474;SDS011;1248;48.694;10.160;2022-08-14T01:29:08;6.13;;;5.60;;
2474;SDS011;1248;48.694;10.160;2022-08-14T01:31:36;5.80;;;5.17;;
2474;SDS011;1248;48.694;10.160;2022-08-14T01:34:05;6.27;;;5.77;;
2474;SDS011;1248;48.694;10.160;2022-08-14T01:36:32;5.93;;;5.40;;
2474;SDS011;1248;48.694;10.160;2022-08-14T01:39:06;8.97;;;5.40;;
2474;SDS011;1248;48.694;10.160;2022-08-14T01:41:35;6.50;;;5.40;;
2474;SDS011;1248;48.694;10.160;2022-08-14T01:44:04;5.90;;;5.40;;
2474;SDS011;1248;48.694;10.160;2022-08-14T01:46:33;5.97;;;5.30;;
2474;SDS011;1248;48.694;10.160;2022-08-14T01:49:01;6.10;;;5.50;;
2474;SDS011;1248;48.694;10.160;2022-08-14T01:51:29;6.67;;;5.93;;
2474;SDS011;1248;48.694;10.160;2022-08-14T01:53:58;6.53;;;5.80;;
2474;SDS011;1248;48.694;10.160;2022-08-14T01:56:28;7.03;;;5.97;;
2474;SDS011;1248;48.694;10.160;2022-08-14T01:59:02;6.90;;;6.13;;
2474;SDS011;1248;48.694;10.160;2022-08-14T02:01:30;5.63;;;5.20;;
2474;SDS011;1248;48.694;10.160;2022-08-14T02:03:59;10.00;;;6.37;;
2474;SDS011;1248;48.694;10.160;2022-08-14T02:06:26;6.43;;;5.93;;
2474;SDS011;1248;48.694;10.160;2022-08-14T02:08:53;6.77;;;6.03;;
2474;SDS011;1248;48.694;10.160;2022-08-14T02:11:20;6.63;;;6.03;;
2474;SDS011;1248;48.694;10.160;2022-08-14T02:13:51;6.73;;;6.03;;
2474;SDS011;1248;48.694;10.160;2022-08-14T02:16:22;6.20;;;5.13;;
2474;SDS011;1248;48.694;10.160;2022-08-14T02:18:51;7.10;;;6.40;;
2474;SDS011;1248;48.694;10.160;2022-08-14T02:21:20;6.90;;;6.17;;
2474;SDS011;1248;48.694;10.160;2022-08-14T02:23:47;7.37;;;5.90;;
2474;SDS011;1248;48.694;10.160;2022-08-14T02:26:17;7.10;;;6.50;;
2474;SDS011;1248;48.694;10.160;2022-08-14T02:28:47;6.40;;;5.80;;
2474;SDS011;1248;48.694;10.160;2022-08-14T02:31:17;6.00;;;5.50;;
2474;SDS011;1248;48.694;10.160;2022-08-14T02:33:44;7.67;;;6.60;;
2474;SDS011;1248;48.694;10.160;2022-08-14T02:36:12;6.33;;;5.90;;
2474;SDS011;1248;48.694;10.160;2022-08-14T02:38:40;7.27;;;6.57;;
2474;SDS011;1248;48.694;10.160;2022-08-14T02:41:08;6.63;;;6.00;;
2474;SDS011;1248;48.694;10.160;2022-08-14T02:43:37;7.63;;;6.93;;
2474;SDS011;1248;48.694;10.160;2022-08-14T02:46:05;6.80;;;6.20;;
2474;SDS011;1248;48.694;10.160;2022-08-14T02:48:36;7.03;;;6.30;;
2474;SDS011;1248;48.694;10.160;2022-08-14T02:51:05;6.50;;;6.00;;
2474;SDS011;1248;48.694;10.160;2022-08-14T02:53:33;5.93;;;5.43;;
2474;SDS011;1248;48.694;10.160;2022-08-14T02:56:00;6.93;;;6.33;;
2474;SDS011;1248;48.694;10.160;2022-08-14T02:58:29;6.73;;;6.07;;
2474;SDS011;1248;48.694;10.160;2022-08-14T03:00:57;7.33;;;6.60;;
2474;SDS011;1248;48.694;10.160;2022-08-14T03:03:24;8.00;;;5.77;;
2474;SDS011;1248;48.694;10.160;2022-08-14T03:05:53;7.13;;;6.43;;
2474;SDS011;1248;48.694;10.160;2022-08-14T03:08:20;7.30;;;6.60;;
2474;SDS011;1248;48.694;10.160;2022-08-14T03:10:47;8.13;;;7.17;;
2474;SDS011;1248;48.694;10.160;2022-08-14T03:13:14;6.87;;;6.17;;
2474;SDS011;1248;48.694;10.160;2022-08-14T03:15:42;6.67;;;5.73;;
2474;SDS011;1248;48.694;10.160;2022-08-14T03:18:11;7.43;;;6.73;;
2474;SDS011;1248;48.694;10.160;2022-08-14T03:20:39;6.83;;;6.30;;
2474;SDS011;1248;48.694;10.160;2022-08-14T03:23:08;7.30;;;6.67;;
2474;SDS011;1248;48.694;10.160;2022-08-14T03:25:35;7.03;;;5.97;;
2474;SDS011;1248;48.694;10.160;2022-08-14T03:28:02;7.13;;;6.50;;
2474;SDS011;1248;48.694;10.160;2022-08-14T03:30:31;6.50;;;6.00;;
2474;SDS011;1248;48.694;10.160;2022-08-14T03:33:00;7.50;;;6.80;;
2474;SDS011;1248;48.694;10.160;2022-08-14T03:35:27;7.00;;;5.87;;
2474;SDS011;1248;48.694;10.160;2022-08-14T03:37:55;7.30;;;6.70;;
2474;SDS011;1248;48.694;10.160;2022-08-14T03:40:26;6.33;;;5.73;;
2474;SDS011;1248;48.694;10.160;2022-08-14T03:42:53;9.53;;;6.07;;
2474;SDS011;1248;48.694;10.160;2022-08-14T03:45:20;7.53;;;6.93;;
2474;SDS011;1248;48.694;10.160;2022-08-14T03:47:49;7.70;;;6.40;;
2474;SDS011;1248;48.694;10.160;2022-08-14T03:50:16;6.93;;;6.33;;
2474;SDS011;1248;48.694;10.160;2022-08-14T03:52:44;6.87;;;6.20;;
2474;SDS011;1248;48.694;10.160;2022-08-14T03:55:11;6.63;;;6.13;;
2474;SDS011;1248;48.694;10.160;2022-08-14T03:57:40;7.37;;;6.67;;
2474;SDS011;1248;48.694;10.160;2022-08-14T04:00:07;7.07;;;6.37;;
2474;SDS011;1248;48.694;10.160;2022-08-14T04:02:37;7.20;;;6.60;;
2474;SDS011;1248;48.694;10.160;2022-08-14T04:05:05;8.37;;;7.40;;
2474;SDS011;1248;48.694;10.160;2022-08-14T04:07:34;7.10;;;6.60;;
2474;SDS011;1248;48.694;10.160;2022-08-14T04:10:04;7.57;;;6.87;;
2474;SDS011;1248;48.694;10.160;2022-08-14T04:12:31;8.73;;;6.70;;
2474;SDS011;1248;48.694;10.160;2022-08-14T04:15:02;7.20;;;6.50;;
2474;SDS011;1248;48.694;10.160;2022-08-14T04:17:30;8.23;;;7.17;;
2474;SDS011;1248;48.694;10.160;2022-08-14T04:19:58;7.37;;;6.67;;
2474;SDS011;1248;48.694;10.160;2022-08-14T04:22:31;7.10;;;6.37;;
2474;SDS011;1248;48.694;10.160;2022-08-14T04:24:59;7.60;;;6.83;;
2474;SDS011;1248;48.694;10.160;2022-08-14T04:27:27;8.20;;;7.40;;
2474;SDS011;1248;48.694;10.160;2022-08-14T04:29:54;9.87;;;6.90;;
2474;SDS011;1248;48.694;10.160;2022-08-14T04:32:23;8.07;;;7.30;;
2474;SDS011;1248;48.694;10.160;2022-08-14T04:34:53;7.37;;;6.77;;
2474;SDS011;1248;48.694;10.160;2022-08-14T04:37:21;6.93;;;6.33;;
2474;SDS011;1248;48.694;10.160;2022-08-14T04:40:07;7.30;;;6.10;;
2474;SDS011;1248;48.694;10.160;2022-08-14T04:42:52;7.23;;;6.60;;
2474;SDS011;1248;48.694;10.160;2022-08-14T04:45:37;7.80;;;7.20;;
2474;SDS011;1248;48.694;10.160;2022-08-14T04:48:08;7.23;;;6.60;;
2474;SDS011;1248;48.694;10.160;2022-08-14T04:50:41;7.60;;;6.30;;
2474;SDS011;1248;48.694;10.160;2022-08-14T04:55:39;7.23;;;6.50;;
2474;SDS011;1248;48.694;10.160;2022-08-14T04:58:07;8.77;;;6.00;;
2474;SDS011;1248;48.694;10.160;2022-08-14T05:00:35;7.73;;;7.03;;
2474;SDS011;1248;48.694;10.160;2022-08-14T05:03:05;8.30;;;7.60;;
2474;SDS011;1248;48.694;10.160;2022-08-14T05:05:33;7.60;;;6.90;;
2474;SDS011;1248;48.694;10.160;2022-08-14T05:08:04;8.73;;;7.60;;
2474;SDS011;1248;48.694;10.160;2022-08-14T05:10:35;9.17;;;7.40;;
2474;SDS011;1248;48.694;10.160;2022-08-14T05:13:02;7.57;;;6.87;;
2474;SDS011;1248;48.694;10.160;2022-08-14T05:15:31;7.50;;;6.80;;
2474;SDS011;1248;48.694;10.160;2022-08-14T05:18:01;6.80;;;6.20;;
2474;SDS011;1248;48.694;10.160;2022-08-14T05:20:30;7.03;;;6.43;;
2474;SDS011;1248;48.694;10.160;2022-08-14T05:22:59;7.70;;;7.00;;
2474;SDS011;1248;48.694;10.160;2022-08-14T05:25:26;7.67;;;6.80;;
2474;SDS011;1248;48.694;10.160;2022-08-14T05:27:53;7.93;;;7.23;;
2474;SDS011;1248;48.694;10.160;2022-08-14T05:30:25;7.50;;;6.30;;
2474;SDS011;1248;48.694;10.160;2022-08-14T05:32:52;8.67;;;7.20;;
2474;SDS011;1248;48.694;10.160;2022-08-14T05:35:19;7.77;;;7.07;;
2474;SDS011;1248;48.694;10.160;2022-08-14T05:37:46;9.27;;;7.80;;
2474;SDS011;1248;48.694;10.160;2022-08-14T05:40:16;8.30;;;7.60;;
2474;SDS011;1248;48.694;10.160;2022-08-14T05:42:43;7.10;;;6.50;;
2474;SDS011;1248;48.694;10.160;2022-08-14T05:45:10;7.60;;;6.47;;
2474;SDS011;1248;48.694;10.160;2022-08-14T05:47:39;8.60;;;7.33;;
2474;SDS011;1248;48.694;10.160;2022-08-14T05:50:07;6.90;;;6.30;;
2474;SDS011;1248;48.694;10.160;2022-08-14T05:52:36;8.80;;;6.43;;
2474;SDS011;1248;48.694;10.160;2022-08-14T05:55:03;6.60;;;6.07;;
2474;SDS011;1248;48.694;10.160;2022-08-14T05:57:34;5.70;;;5.30;;
2474;SDS011;1248;48.694;10.160;2022-08-14T06:00:12;7.20;;;6.60;;
2474;SDS011;1248;48.694;10.160;2022-08-14T06:02:40;7.73;;;6.93;;
2474;SDS011;1248;48.694;10.160;2022-08-14T06:05:07;7.00;;;6.30;;
2474;SDS011;1248;48.694;10.160;2022-08-14T06:07:34;7.90;;;7.00;;
2474;SDS011;1248;48.694;10.160;2022-08-14T06:10:02;6.97;;;6.27;;
2474;SDS011;1248;48.694;10.160;2022-08-14T06:12:29;6.70;;;5.97;;
2474;SDS011;1248;48.694;10.160;2022-08-14T06:14:57;7.27;;;6.67;;
2474;SDS011;1248;48.694;10.160;2022-08-14T06:17:25;8.10;;;6.63;;
2474;SDS011;1248;48.694;10.160;2022-08-14T06:19:52;6.70;;;6.10;;
2474;SDS011;1248;48.694;10.160;2022-08-14T06:22:19;6.27;;;5.77;;
2474;SDS011;1248;48.694;10.160;2022-08-14T06:24:46;5.90;;;5.30;;
2474;SDS011;1248;48.694;10.160;2022-08-14T06:27:13;11.03;;;6.17;;
2474;SDS011;1248;48.694;10.160;2022-08-14T06:29:40;6.73;;;6.13;;
2474;SDS011;1248;48.694;10.160;2022-08-14T06:32:09;10.00;;;5.87;;
2474;SDS011;1248;48.694;10.160;2022-08-14T06:34:36;8.70;;;6.70;;
2474;SDS011;1248;48.694;10.160;2022-08-14T06:37:03;6.63;;;5.90;;
2474;SDS011;1248;48.694;10.160;2022-08-14T06:39:31;7.27;;;5.33;;
2474;SDS011;1248;48.694;10.160;2022-08-14T06:41:58;8.90;;;6.67;;
2474;SDS011;1248;48.694;10.160;2022-08-14T06:44:26;7.97;;;6.00;;
2474;SDS011;1248;48.694;10.160;2022-08-14T06:46:53;6.00;;;5.30;;
2474;SDS011;1248;48.694;10.160;2022-08-14T06:49:24;6.27;;;5.70;;
2474;SDS011;1248;48.694;10.160;2022-08-14T06:51:51;6.50;;;5.93;;
2474;SDS011;1248;48.694;10.160;2022-08-14T06:54:18;6.20;;;5.70;;
2474;SDS011;1248;48.694;10.160;2022-08-14T06:56:45;7.37;;;6.67;;
2474;SDS011;1248;48.694;10.160;2022-08-14T06:59:13;6.43;;;5.83;;
2474;SDS011;1248;48.694;10.160;2022-08-14T07:01:40;7.33;;;6.60;;
2474;SDS011;1248;48.694;10.160;2022-08-14T07:04:27;7.00;;;5.80;;
2474;SDS011;1248;48.694;10.160;2022-08-14T07:07:11;7.43;;;6.50;;
2474;SDS011;1248;48.694;10.160;2022-08-14T07:09:38;7.67;;;6.33;;
2474;SDS011;1248;48.694;10.160;2022-08-14T07:12:06;8.20;;;6.63;;
2474;SDS011;1248;48.694;10.160;2022-08-14T07:14:34;10.87;;;6.10;;
2474;SDS011;1248;48.694;10.160;2022-08-14T07:17:02;7.93;;;7.13;;
2474;SDS011;1248;48.694;10.160;2022-08-14T07:19:33;9.57;;;6.63;;
2474;SDS011;1248;48.694;10.160;2022-08-14T07:22:00;8.27;;;7.37;;
2474;SDS011;1248;48.694;10.160;2022-08-14T07:24:27;7.97;;;7.23;;
2474;SDS011;1248;48.694;10.160;2022-08-14T07:26:54;8.17;;;7.47;;
2474;SDS011;1248;48.694;10.160;2022-08-14T07:29:21;7.93;;;7.23;;
2474;SDS011;1248;48.694;10.160;2022-08-14T07:31:48;12.70;;;6.57;;
2474;SDS011;1248;48.694;10.160;2022-08-14T07:34:15;6.63;;;6.03;;
2474;SDS011;1248;48.694;10.160;2022-08-14T07:36:44;7.53;;;6.80;;
2474;SDS011;1248;48.694;10.160;2022-08-14T07:39:12;6.67;;;6.00;;
2474;SDS011;1248;48.694;10.160;2022-08-14T07:41:40;7.10;;;6.37;;
2474;SDS011;1248;48.694;10.160;2022-08-14T07:44:08;6.90;;;6.20;;
2474;SDS011;1248;48.694;10.160;2022-08-14T07:46:38;7.30;;;6.03;;
2474;SDS011;1248;48.694;10.160;2022-08-14T07:49:05;9.40;;;6.60;;
2474;SDS011;1248;48.694;10.160;2022-08-14T07:51:32;7.30;;;6.57;;
2474;SDS011;1248;48.694;10.160;2022-08-14T07:54:01;7.70;;;5.50;;
2474;SDS011;1248;48.694;10.160;2022-08-14T07:56:28;6.23;;;5.73;;
2474;SDS011;1248;48.694;10.160;2022-08-14T07:58:55;5.90;;;5.40;;
2474;SDS011;1248;48.694;10.160;2022-08-14T08:01:23;6.07;;;5.20;;
2474;SDS011;1248;48.694;10.160;2022-08-14T08:03:51;9.43;;;5.73;;
2474;SDS011;1248;48.694;10.160;2022-08-14T08:06:19;6.17;;;5.20;;
2474;SDS011;1248;48.694;10.160;2022-08-14T08:08:46;5.83;;;5.23;;
2474;SDS011;1248;48.694;10.160;2022-08-14T08:11:16;5.67;;;4.03;;
2474;SDS011;1248;48.694;10.160;2022-08-14T08:13:44;6.00;;;4.93;;
2474;SDS011;1248;48.694;10.160;2022-08-14T08:16:11;4.77;;;4.40;;
2474;SDS011;1248;48.694;10.160;2022-08-14T08:18:38;9.63;;;4.60;;
2474;SDS011;1248;48.694;10.160;2022-08-14T08:21:05;4.70;;;4.30;;
2474;SDS011;1248;48.694;10.160;2022-08-14T08:23:32;3.77;;;3.47;;
2474;SDS011;1248;48.694;10.160;2022-08-14T08:25:59;5.20;;;4.70;;
2474;SDS011;1248;48.694;10.160;2022-08-14T08:28:28;4.03;;;3.73;;
2474;SDS011;1248;48.694;10.160;2022-08-14T08:30:56;4.63;;;4.23;;
2474;SDS011;1248;48.694;10.160;2022-08-14T08:33:25;4.90;;;4.20;;
2474;SDS011;1248;48.694;10.160;2022-08-14T08:35:56;4.50;;;4.10;;
2474;SDS011;1248;48.694;10.160;2022-08-14T08:38:24;5.30;;;4.80;;
2474;SDS011;1248;48.694;10.160;2022-08-14T08:40:54;6.23;;;4.90;;
2474;SDS011;1248;48.694;10.160;2022-08-14T08:43:22;4.27;;;3.97;;
2474;SDS011;1248;48.694;10.160;2022-08-14T08:45:57;3.80;;;3.60;;
2474;SDS011;1248;48.694;10.160;2022-08-14T08:48:26;5.13;;;4.20;;
2474;SDS011;1248;48.694;10.160;2022-08-14T08:50:54;3.70;;;3.40;;
2474;SDS011;1248;48.694;10.160;2022-08-14T08:53:24;4.93;;;4.00;;
2474;SDS011;1248;48.694;10.160;2022-08-14T08:55:56;3.60;;;3.30;;
2474;SDS011;1248;48.694;10.160;2022-08-14T08:58:23;4.60;;;3.77;;
2474;SDS011;1248;48.694;10.160;2022-08-14T09:00:52;6.13;;;3.77;;
2474;SDS011;1248;48.694;10.160;2022-08-14T09:03:22;7.33;;;3.80;;
2474;SDS011;1248;48.694;10.160;2022-08-14T09:05:51;3.60;;;3.30;;
2474;SDS011;1248;48.694;10.160;2022-08-14T09:08:20;4.90;;;4.40;;
2474;SDS011;1248;48.694;10.160;2022-08-14T09:10:49;3.53;;;3.23;;
2474;SDS011;1248;48.694;10.160;2022-08-14T09:13:16;4.20;;;3.80;;
2474;SDS011;1248;48.694;10.160;2022-08-14T09:15:45;3.47;;;3.17;;
2474;SDS011;1248;48.694;10.160;2022-08-14T09:18:13;3.33;;;3.10;;
2474;SDS011;1248;48.694;10.160;2022-08-14T09:20:43;3.50;;;3.20;;
2474;SDS011;1248;48.694;10.160;2022-08-14T09:23:12;4.13;;;3.07;;
2474;SDS011;1248;48.694;10.160;2022-08-14T09:25:41;3.40;;;3.10;;
2474;SDS011;1248;48.694;10.160;2022-08-14T09:28:10;3.93;;;3.63;;
2474;SDS011;1248;48.694;10.160;2022-08-14T09:30:39;7.00;;;3.63;;
2474;SDS011;1248;48.694;10.160;2022-08-14T09:38:53;4.10;;;3.67;;
2474;SDS011;1248;48.694;10.160;2022-08-14T09:41:32;4.50;;;4.10;;
2474;SDS011;1248;48.694;10.160;2022-08-14T09:44:03;2.80;;;2.60;;
2474;SDS011;1248;48.694;10.160;2022-08-14T09:46:32;3.70;;;3.40;;
2474;SDS011;1248;48.694;10.160;2022-08-14T09:48:59;3.40;;;2.73;;
2474;SDS011;1248;48.694;10.160;2022-08-14T09:51:28;4.37;;;3.97;;
2474;SDS011;1248;48.694;10.160;2022-08-14T09:53:59;6.23;;;3.33;;
2474;SDS011;1248;48.694;10.160;2022-08-14T09:56:27;3.60;;;3.30;;
2474;SDS011;1248;48.694;10.160;2022-08-14T09:58:56;6.63;;;3.70;;
2474;SDS011;1248;48.694;10.160;2022-08-14T10:01:33;3.73;;;3.43;;
2474;SDS011;1248;48.694;10.160;2022-08-14T10:04:04;6.37;;;4.00;;
2474;SDS011;1248;48.694;10.160;2022-08-14T10:06:41;4.30;;;3.90;;
2474;SDS011;1248;48.694;10.160;2022-08-14T10:09:08;4.50;;;3.47;;
2474;SDS011;1248;48.694;10.160;2022-08-14T10:11:36;4.37;;;3.80;;
2474;SDS011;1248;48.694;10.160;2022-08-14T10:14:12;5.00;;;4.30;;
2474;SDS011;1248;48.694;10.160;2022-08-14T10:16:42;4.30;;;4.00;;
2474;SDS011;1248;48.694;10.160;2022-08-14T10:19:10;7.50;;;4.17;;
2474;SDS011;1248;48.694;10.160;2022-08-14T10:21:40;4.47;;;4.00;;
2474;SDS011;1248;48.694;10.160;2022-08-14T10:24:09;4.67;;;4.27;;
2474;SDS011;1248;48.694;10.160;2022-08-14T10:26:37;4.87;;;4.40;;
2474;SDS011;1248;48.694;10.160;2022-08-14T10:29:05;4.67;;;4.10;;
2474;SDS011;1248;48.694;10.160;2022-08-14T10:31:34;3.93;;;3.63;;
2474;SDS011;1248;48.694;10.160;2022-08-14T10:34:03;4.90;;;4.50;;
2474;SDS011;1248;48.694;10.160;2022-08-14T10:36:31;4.70;;;4.30;;
2474;SDS011;1248;48.694;10.160;2022-08-14T10:39:03;5.00;;;4.60;;
2474;SDS011;1248;48.694;10.160;2022-08-14T10:41:33;4.40;;;4.00;;
2474;SDS011;1248;48.694;10.160;2022-08-14T10:44:06;5.70;;;4.83;;
2474;SDS011;1248;48.694;10.160;2022-08-14T10:46:38;5.10;;;4.00;;
2474;SDS011;1248;48.694;10.160;2022-08-14T10:49:14;5.17;;;4.70;;
2474;SDS011;1248;48.694;10.160;2022-08-14T10:51:53;5.60;;;5.10;;
2474;SDS011;1248;48.694;10.160;2022-08-14T10:54:29;5.33;;;4.40;;
2474;SDS011;1248;48.694;10.160;2022-08-14T10:56:57;5.00;;;4.27;;
2474;SDS011;1248;48.694;10.160;2022-08-14T10:59:25;4.90;;;4.60;;
2474;SDS011;1248;48.694;10.160;2022-08-14T11:01:52;3.77;;;3.47;;
2474;SDS011;1248;48.694;10.160;2022-08-14T11:04:19;6.43;;;3.77;;
2474;SDS011;1248;48.694;10.160;2022-08-14T11:06:50;4.70;;;4.20;;
2474;SDS011;1248;48.694;10.160;2022-08-14T11:09:17;5.80;;;4.57;;
2474;SDS011;1248;48.694;10.160;2022-08-14T11:11:46;4.53;;;3.70;;
2474;SDS011;1248;48.694;10.160;2022-08-14T11:14:20;4.50;;;4.20;;
2474;SDS011;1248;48.694;10.160;2022-08-14T11:16:47;4.63;;;4.23;;
2474;SDS011;1248;48.694;10.160;2022-08-14T11:19:15;5.20;;;3.73;;
2474;SDS011;1248;48.694;10.160;2022-08-14T11:21:43;10.07;;;3.53;;
2474;SDS011;1248;48.694;10.160;2022-08-14T11:24:10;4.27;;;3.53;;
2474;SDS011;1248;48.694;10.160;2022-08-14T11:26:39;4.13;;;3.73;;
2474;SDS011;1248;48.694;10.160;2022-08-14T11:29:11;4.00;;;3.70;;
2474;SDS011;1248;48.694;10.160;2022-08-14T11:31:38;4.60;;;4.03;;
2474;SDS011;1248;48.694;10.160;2022-08-14T11:34:05;4.60;;;3.43;;
2474;SDS011;1248;48.694;10.160;2022-08-14T11:36:32;4.17;;;3.20;;
2474;SDS011;1248;48.694;10.160;2022-08-14T11:38:59;4.33;;;3.93;;
2474;SDS011;1248;48.694;10.160;2022-08-14T11:41:26;5.63;;;3.93;;
2474;SDS011;1248;48.694;10.160;2022-08-14T11:43:53;3.80;;;3.60;;
2474;SDS011;1248;48.694;10.160;2022-08-14T11:46:22;4.45;;;4.00;;
2474;SDS011;1248;48.694;10.160;2022-08-14T11:48:50;6.40;;;3.70;;
2474;SDS011;1248;48.694;10.160;2022-08-14T11:51:19;5.83;;;4.03;;
2474;SDS011;1248;48.694;10.160;2022-08-14T11:53:48;4.70;;;4.00;;
2474;SDS011;1248;48.694;10.160;2022-08-14T11:56:16;4.00;;;3.70;;
2474;SDS011;1248;48.694;10.160;2022-08-14T11:58:48;4.97;;;3.80;;
2474;SDS011;1248;48.694;10.160;2022-08-14T12:01:16;4.00;;;3.70;;
2474;SDS011;1248;48.694;10.160;2022-08-14T12:03:53;4.90;;;3.70;;
2474;SDS011;1248;48.694;10.160;2022-08-14T12:06:23;4.30;;;3.90;;
2474;SDS011;1248;48.694;10.160;2022-08-14T12:08:51;4.17;;;3.83;;
2474;SDS011;1248;48.694;10.160;2022-08-14T12:11:18;4.03;;;3.60;;
2474;SDS011;1248;48.694;10.160;2022-08-14T12:13:46;4.70;;;3.60;;
2474;SDS011;1248;48.694;10.160;2022-08-14T12:16:13;4.10;;;3.80;;
2474;SDS011;1248;48.694;10.160;2022-08-14T12:18:43;4.67;;;3.30;;
2474;SDS011;1248;48.694;10.160;2022-08-14T12:21:13;3.80;;;3.50;;
2474;SDS011;1248;48.694;10.160;2022-08-14T12:23:42;4.47;;;3.70;;
2474;SDS011;1248;48.694;10.160;2022-08-14T12:26:12;4.00;;;3.70;;
2474;SDS011;1248;48.694;10.160;2022-08-14T12:28:42;6.17;;;3.80;;
2474;SDS011;1248;48.694;10.160;2022-08-14T12:31:12;4.47;;;3.23;;
2474;SDS011;1248;48.694;10.160;2022-08-14T12:33:42;4.00;;;3.60;;
2474;SDS011;1248;48.694;10.160;2022-08-14T12:36:17;4.30;;;3.30;;
2474;SDS011;1248;48.694;10.160;2022-08-14T12:38:46;3.70;;;3.40;;
2474;SDS011;1248;48.694;10.160;2022-08-14T12:41:16;8.40;;;3.40;;
2474;SDS011;1248;48.694;10.160;2022-08-14T12:43:45;3.50;;;3.20;;
2474;SDS011;1248;48.694;10.160;2022-08-14T12:46:20;4.13;;;3.73;;
2474;SDS011;1248;48.694;10.160;2022-08-14T12:48:52;4.53;;;3.53;;
2474;SDS011;1248;48.694;10.160;2022-08-14T12:51:20;3.90;;;3.30;;
2474;SDS011;1248;48.694;10.160;2022-08-14T12:53:50;3.43;;;3.23;;
2474;SDS011;1248;48.694;10.160;2022-08-14T12:56:18;5.10;;;3.57;;
2474;SDS011;1248;48.694;10.160;2022-08-14T12:58:47;3.30;;;3.10;;
2474;SDS011;1248;48.694;10.160;2022-08-14T13:01:22;4.93;;;3.80;;
2474;SDS011;1248;48.694;10.160;2022-08-14T13:03:50;4.73;;;3.43;;
2474;SDS011;1248;48.694;10.160;2022-08-14T13:06:29;8.90;;;3.93;;
2474;SDS011;1248;48.694;10.160;2022-08-14T13:08:57;4.53;;;3.37;;
2474;SDS011;1248;48.694;10.160;2022-08-14T13:11:24;4.10;;;3.80;;
2474;SDS011;1248;48.694;10.160;2022-08-14T13:13:55;3.13;;;2.93;;
2474;SDS011;1248;48.694;10.160;2022-08-14T13:16:24;3.57;;;3.27;;
2474;SDS011;1248;48.694;10.160;2022-08-14T13:18:56;3.90;;;3.60;;
2474;SDS011;1248;48.694;10.160;2022-08-14T13:21:25;3.70;;;3.40;;
2474;SDS011;1248;48.694;10.160;2022-08-14T13:23:53;3.20;;;3.00;;
2474;SDS011;1248;48.694;10.160;2022-08-14T13:26:22;5.43;;;3.20;;
2474;SDS011;1248;48.694;10.160;2022-08-14T13:28:50;7.57;;;3.63;;
2474;SDS011;1248;48.694;10.160;2022-08-14T13:31:18;2.67;;;2.47;;
2474;SDS011;1248;48.694;10.160;2022-08-14T13:33:46;3.20;;;2.90;;
2474;SDS011;1248;48.694;10.160;2022-08-14T13:36:15;4.00;;;3.53;;
2474;SDS011;1248;48.694;10.160;2022-08-14T13:38:42;3.70;;;3.40;;
2474;SDS011;1248;48.694;10.160;2022-08-14T13:41:10;3.33;;;3.13;;
2474;SDS011;1248;48.694;10.160;2022-08-14T13:43:37;3.37;;;3.07;;
2474;SDS011;1248;48.694;10.160;2022-08-14T13:46:04;3.20;;;2.90;;
2474;SDS011;1248;48.694;10.160;2022-08-14T13:48:32;3.83;;;3.53;;
2474;SDS011;1248;48.694;10.160;2022-08-14T13:50:59;3.83;;;3.53;;
2474;SDS011;1248;48.694;10.160;2022-08-14T13:53:30;4.97;;;3.40;;
2474;SDS011;1248;48.694;10.160;2022-08-14T13:55:59;4.00;;;3.70;;
2474;SDS011;1248;48.694;10.160;2022-08-14T13:58:27;3.30;;;3.03;;
2474;SDS011;1248;48.694;10.160;2022-08-14T14:00:54;5.83;;;3.57;;
2474;SDS011;1248;48.694;10.160;2022-08-14T14:03:23;3.67;;;3.30;;
2474;SDS011;1248;48.694;10.160;2022-08-14T14:05:51;3.90;;;3.00;;
2474;SDS011;1248;48.694;10.160;2022-08-14T14:08:19;3.77;;;3.13;;
2474;SDS011;1248;48.694;10.160;2022-08-14T14:10:49;5.80;;;3.80;;
2474;SDS011;1248;48.694;10.160;2022-08-14T14:13:17;3.47;;;3.10;;
2474;SDS011;1248;48.694;10.160;2022-08-14T14:15:46;3.10;;;2.90;;
2474;SDS011;1248;48.694;10.160;2022-08-14T14:18:14;9.47;;;5.10;;
2474;SDS011;1248;48.694;10.160;2022-08-14T14:20:42;3.10;;;2.80;;
2474;SDS011;1248;48.694;10.160;2022-08-14T14:23:11;3.40;;;3.10;;
2474;SDS011;1248;48.694;10.160;2022-08-14T14:25:40;5.83;;;3.80;;
2474;SDS011;1248;48.694;10.160;2022-08-14T14:28:09;3.40;;;2.63;;
2474;SDS011;1248;48.694;10.160;2022-08-14T14:30:39;4.90;;;3.43;;
2474;SDS011;1248;48.694;10.160;2022-08-14T14:33:11;3.80;;;2.70;;
2474;SDS011;1248;48.694;10.160;2022-08-14T14:35:40;4.77;;;2.87;;
2474;SDS011;1248;48.694;10.160;2022-08-14T14:38:11;3.07;;;2.87;;
2474;SDS011;1248;48.694;10.160;2022-08-14T14:40:39;3.13;;;2.30;;
2474;SDS011;1248;48.694;10.160;2022-08-14T14:43:06;2.63;;;2.43;;
2474;SDS011;1248;48.694;10.160;2022-08-14T14:45:37;4.23;;;2.67;;
2474;SDS011;1248;48.694;10.160;2022-08-14T14:48:05;2.90;;;2.70;;
2474;SDS011;1248;48.694;10.160;2022-08-14T14:50:34;3.70;;;2.23;;
2474;SDS011;1248;48.694;10.160;2022-08-14T14:53:03;4.30;;;2.80;;
2474;SDS011;1248;48.694;10.160;2022-08-14T14:55:30;3.10;;;2.80;;
2474;SDS011;1248;48.694;10.160;2022-08-14T14:57:57;2.57;;;2.37;;
2474;SDS011;1248;48.694;10.160;2022-08-14T15:00:26;3.53;;;2.90;;
2474;SDS011;1248;48.694;10.160;2022-08-14T15:02:53;2.93;;;2.30;;
2474;SDS011;1248;48.694;10.160;2022-08-14T15:05:21;6.50;;;2.63;;
2474;SDS011;1248;48.694;10.160;2022-08-14T15:07:49;2.70;;;2.50;;
2474;SDS011;1248;48.694;10.160;2022-08-14T15:10:17;3.43;;;2.50;;
2474;SDS011;1248;48.694;10.160;2022-08-14T15:12:45;3.03;;;2.73;;
2474;SDS011;1248;48.694;10.160;2022-08-14T15:15:12;2.70;;;2.50;;
2474;SDS011;1248;48.694;10.160;2022-08-14T15:17:41;4.43;;;2.80;;